메인 페이지
METAR-TAF:

METAR-TAF

공항 :

브라질리아 국제공항

브라질리아, 브라질 연방구, 브라질

위도: 15-52S, 경도: 047-56W, 고도: 1061m

현재 날씨관측

예보는 38분 전, 11:00시(UTC)에 발표되었습니다.
여러 방향의 바람 2kt
온도 21°C
습도 78%
기압 1021 hPa
시정 10km 이상
고도 4500ft 상공 구름 조금

METAR: SBBR 201100Z VRB02KT 9999 FEW045 21/17 Q1021

시각: 08:38 (11:38 UTC)

예보

예보는 7 시간 38분 전, 04:00시(UTC)에 발표되었습니다.
예보 대상 시간: 20일 06시부터 21일 06시까지 (UTC)
kt
시정 10km 이상
고도 3000ft 상공 구름 조금
전환 중
20일 11시부터 20일 13시까지 (UTC)
동북동10kt
고도 4000ft 상공 구름 보통
전환 중
20일 18시부터 20일 20시까지 (UTC)
고도 4000ft 상공 구름 보통
고도 4500ft 상공 구름 조금, 타워링 적운.
확률 30%
20일 18시부터 20일 23시까지 (UTC)
고도 4000ft 상공 구름 조금
고도 4500ft 상공 구름 조금, 적란운.
뇌우, 비
전환 중
20일 23시부터 21일 01시까지 (UTC)
남남동5kt
고도 4000ft 상공 구름 조금
전환 중
21일 04시부터 21일 06시까지 (UTC)
4kt
고도 3000ft 상공 구름 조금

TAF: SBBR 200400Z 2006/2106 00000KT 9999 FEW030 TN16/2008Z TX27/2018Z BECMG 2011/2013 07010KT SCT040 BECMG 2018/2020 SCT040 FEW045TCU PROB30 2018/2023 TSRA FEW040 FEW045CB BECMG 2023/2101 16005KT FEW040 BECMG 2104/2106 19004KT FEW030 RMK PEW

4,000개 이상의 공항 관측 자료 및 예보 (METAR 및 TAF 보고).

지도상에서 검색 가능한 기상관측소가 노란 점과 빨간 점으로 표시되어 있습니다.

기상관측소 명을 보려면 표시 위로 마우스를 이동하세요.

날씨 관측과 예보를 보려면 클릭하세요.

지도 변경 : 확대하려면 엑스 표시가 있는 녹색 버튼, 축소하려면 빼기 표시가 있는 녹색 버튼, 다음 페이지의 지도를 보려면 녹색 화살표를 클릭하세요.


METAR-TAF: